sensor_id;sensor_type;location;lat;lon;timestamp;P1;durP1;ratioP1;P2;durP2;ratioP2
68858;SDS011;55864;49.238;8.092;2023-06-26T00:00:27;8.27;;;4.80;;
68858;SDS011;55864;49.238;8.092;2023-06-26T00:02:27;8.45;;;4.93;;
68858;SDS011;55864;49.238;8.092;2023-06-26T00:04:28;11.00;;;4.97;;
68858;SDS011;55864;49.238;8.092;2023-06-26T00:06:28;9.60;;;4.82;;
68858;SDS011;55864;49.238;8.092;2023-06-26T00:08:29;7.82;;;4.72;;
68858;SDS011;55864;49.238;8.092;2023-06-26T00:10:29;8.63;;;4.90;;
68858;SDS011;55864;49.238;8.092;2023-06-26T00:12:30;9.52;;;4.60;;
68858;SDS011;55864;49.238;8.092;2023-06-26T00:14:31;8.18;;;4.45;;
68858;SDS011;55864;49.238;8.092;2023-06-26T00:16:33;9.30;;;4.93;;
68858;SDS011;55864;49.238;8.092;2023-06-26T00:18:34;9.68;;;5.25;;
68858;SDS011;55864;49.238;8.092;2023-06-26T00:20:34;8.98;;;5.05;;
68858;SDS011;55864;49.238;8.092;2023-06-26T00:22:35;8.65;;;4.65;;
68858;SDS011;55864;49.238;8.092;2023-06-26T00:24:35;8.25;;;4.80;;
68858;SDS011;55864;49.238;8.092;2023-06-26T00:26:36;9.77;;;4.85;;
68858;SDS011;55864;49.238;8.092;2023-06-26T00:28:36;8.90;;;4.82;;
68858;SDS011;55864;49.238;8.092;2023-06-26T00:30:37;9.43;;;4.75;;
68858;SDS011;55864;49.238;8.092;2023-06-26T00:32:39;8.38;;;4.78;;
68858;SDS011;55864;49.238;8.092;2023-06-26T00:34:40;8.25;;;4.55;;
68858;SDS011;55864;49.238;8.092;2023-06-26T00:36:42;7.80;;;4.43;;
68858;SDS011;55864;49.238;8.092;2023-06-26T00:38:43;8.40;;;4.97;;
68858;SDS011;55864;49.238;8.092;2023-06-26T00:40:43;9.95;;;4.78;;
68858;SDS011;55864;49.238;8.092;2023-06-26T00:42:45;8.02;;;4.60;;
68858;SDS011;55864;49.238;8.092;2023-06-26T00:44:45;9.45;;;5.15;;
68858;SDS011;55864;49.238;8.092;2023-06-26T00:46:47;9.20;;;4.57;;
68858;SDS011;55864;49.238;8.092;2023-06-26T00:48:49;8.90;;;4.53;;
68858;SDS011;55864;49.238;8.092;2023-06-26T00:50:49;8.13;;;4.53;;
68858;SDS011;55864;49.238;8.092;2023-06-26T00:52:50;9.32;;;4.70;;
68858;SDS011;55864;49.238;8.092;2023-06-26T00:54:50;8.43;;;4.60;;
68858;SDS011;55864;49.238;8.092;2023-06-26T00:56:52;8.27;;;4.35;;
68858;SDS011;55864;49.238;8.092;2023-06-26T00:58:52;7.93;;;4.28;;
68858;SDS011;55864;49.238;8.092;2023-06-26T01:00:53;8.02;;;4.63;;
68858;SDS011;55864;49.238;8.092;2023-06-26T01:02:54;8.63;;;4.65;;
68858;SDS011;55864;49.238;8.092;2023-06-26T01:04:56;8.75;;;5.00;;
68858;SDS011;55864;49.238;8.092;2023-06-26T01:06:56;9.18;;;4.65;;
68858;SDS011;55864;49.238;8.092;2023-06-26T01:08:59;10.37;;;4.77;;
68858;SDS011;55864;49.238;8.092;2023-06-26T01:10:59;7.95;;;4.40;;
68858;SDS011;55864;49.238;8.092;2023-06-26T01:13:00;7.68;;;4.32;;
68858;SDS011;55864;49.238;8.092;2023-06-26T01:15:03;8.52;;;4.57;;
68858;SDS011;55864;49.238;8.092;2023-06-26T01:17:04;6.93;;;3.88;;
68858;SDS011;55864;49.238;8.092;2023-06-26T01:19:06;7.32;;;4.20;;
68858;SDS011;55864;49.238;8.092;2023-06-26T01:21:13;9.40;;;4.80;;
68858;SDS011;55864;49.238;8.092;2023-06-26T01:23:16;7.93;;;4.50;;
68858;SDS011;55864;49.238;8.092;2023-06-26T01:25:21;7.43;;;3.90;;
68858;SDS011;55864;49.238;8.092;2023-06-26T01:27:31;9.85;;;4.53;;
68858;SDS011;55864;49.238;8.092;2023-06-26T01:29:33;7.63;;;4.25;;
68858;SDS011;55864;49.238;8.092;2023-06-26T01:31:35;8.07;;;4.13;;
68858;SDS011;55864;49.238;8.092;2023-06-26T01:33:36;8.38;;;4.45;;
68858;SDS011;55864;49.238;8.092;2023-06-26T01:35:38;9.25;;;4.28;;
68858;SDS011;55864;49.238;8.092;2023-06-26T01:37:40;7.90;;;4.40;;
68858;SDS011;55864;49.238;8.092;2023-06-26T01:39:40;7.70;;;4.30;;
68858;SDS011;55864;49.238;8.092;2023-06-26T01:41:40;7.70;;;4.35;;
68858;SDS011;55864;49.238;8.092;2023-06-26T01:44:01;7.30;;;4.03;;
68858;SDS011;55864;49.238;8.092;2023-06-26T01:46:16;8.52;;;4.35;;
68858;SDS011;55864;49.238;8.092;2023-06-26T01:48:23;7.45;;;4.25;;
68858;SDS011;55864;49.238;8.092;2023-06-26T01:50:26;9.73;;;4.60;;
68858;SDS011;55864;49.238;8.092;2023-06-26T01:52:31;9.60;;;4.82;;
68858;SDS011;55864;49.238;8.092;2023-06-26T01:54:42;7.88;;;4.55;;
68858;SDS011;55864;49.238;8.092;2023-06-26T01:56:49;7.55;;;3.92;;
68858;SDS011;55864;49.238;8.092;2023-06-26T01:58:54;10.20;;;4.65;;
68858;SDS011;55864;49.238;8.092;2023-06-26T02:00:56;8.80;;;4.25;;
68858;SDS011;55864;49.238;8.092;2023-06-26T02:02:57;7.97;;;4.47;;
68858;SDS011;55864;49.238;8.092;2023-06-26T02:04:57;8.80;;;4.80;;
68858;SDS011;55864;49.238;8.092;2023-06-26T02:06:58;8.57;;;4.57;;
68858;SDS011;55864;49.238;8.092;2023-06-26T02:08:58;7.55;;;4.20;;
68858;SDS011;55864;49.238;8.092;2023-06-26T02:10:59;8.45;;;4.50;;
68858;SDS011;55864;49.238;8.092;2023-06-26T02:12:59;8.85;;;4.43;;
68858;SDS011;55864;49.238;8.092;2023-06-26T02:15:02;7.55;;;4.32;;
68858;SDS011;55864;49.238;8.092;2023-06-26T02:17:02;9.38;;;4.85;;
68858;SDS011;55864;49.238;8.092;2023-06-26T02:19:03;8.95;;;4.78;;
68858;SDS011;55864;49.238;8.092;2023-06-26T02:21:04;7.95;;;4.47;;
68858;SDS011;55864;49.238;8.092;2023-06-26T02:23:05;7.90;;;4.20;;
68858;SDS011;55864;49.238;8.092;2023-06-26T02:25:06;8.82;;;4.80;;
68858;SDS011;55864;49.238;8.092;2023-06-26T02:27:07;8.07;;;4.38;;
68858;SDS011;55864;49.238;8.092;2023-06-26T02:29:10;8.13;;;4.57;;
68858;SDS011;55864;49.238;8.092;2023-06-26T02:31:12;10.07;;;4.78;;
68858;SDS011;55864;49.238;8.092;2023-06-26T02:33:12;9.93;;;4.80;;
68858;SDS011;55864;49.238;8.092;2023-06-26T02:35:13;7.93;;;4.13;;
68858;SDS011;55864;49.238;8.092;2023-06-26T02:39:16;8.20;;;4.07;;
68858;SDS011;55864;49.238;8.092;2023-06-26T02:41:17;8.48;;;4.28;;
68858;SDS011;55864;49.238;8.092;2023-06-26T02:43:17;7.55;;;4.20;;
68858;SDS011;55864;49.238;8.092;2023-06-26T02:45:19;9.85;;;4.70;;
68858;SDS011;55864;49.238;8.092;2023-06-26T02:47:21;7.53;;;4.47;;
68858;SDS011;55864;49.238;8.092;2023-06-26T02:49:21;9.18;;;5.35;;
68858;SDS011;55864;49.238;8.092;2023-06-26T02:51:22;8.27;;;4.65;;
68858;SDS011;55864;49.238;8.092;2023-06-26T02:53:23;9.82;;;5.00;;
68858;SDS011;55864;49.238;8.092;2023-06-26T02:55:23;9.18;;;4.80;;
68858;SDS011;55864;49.238;8.092;2023-06-26T02:57:26;8.35;;;4.65;;
68858;SDS011;55864;49.238;8.092;2023-06-26T02:59:26;9.77;;;4.85;;
68858;SDS011;55864;49.238;8.092;2023-06-26T03:01:28;9.23;;;4.78;;
68858;SDS011;55864;49.238;8.092;2023-06-26T03:03:30;7.97;;;4.60;;
68858;SDS011;55864;49.238;8.092;2023-06-26T03:05:31;8.95;;;4.93;;
68858;SDS011;55864;49.238;8.092;2023-06-26T03:07:33;8.30;;;4.40;;
68858;SDS011;55864;49.238;8.092;2023-06-26T03:09:35;9.00;;;4.50;;
68858;SDS011;55864;49.238;8.092;2023-06-26T03:11:35;8.02;;;4.30;;
68858;SDS011;55864;49.238;8.092;2023-06-26T03:13:36;9.45;;;4.97;;
68858;SDS011;55864;49.238;8.092;2023-06-26T03:15:37;8.38;;;4.32;;
68858;SDS011;55864;49.238;8.092;2023-06-26T03:17:38;7.85;;;4.22;;
68858;SDS011;55864;49.238;8.092;2023-06-26T03:19:43;8.38;;;4.70;;
68858;SDS011;55864;49.238;8.092;2023-06-26T03:21:52;7.85;;;4.78;;
68858;SDS011;55864;49.238;8.092;2023-06-26T03:23:53;9.07;;;4.60;;
68858;SDS011;55864;49.238;8.092;2023-06-26T03:25:54;9.05;;;4.82;;
68858;SDS011;55864;49.238;8.092;2023-06-26T03:28:03;8.73;;;4.57;;
68858;SDS011;55864;49.238;8.092;2023-06-26T03:30:06;9.88;;;4.53;;
68858;SDS011;55864;49.238;8.092;2023-06-26T03:32:09;9.13;;;4.15;;
68858;SDS011;55864;49.238;8.092;2023-06-26T03:34:10;7.75;;;4.57;;
68858;SDS011;55864;49.238;8.092;2023-06-26T03:36:12;9.82;;;4.97;;
68858;SDS011;55864;49.238;8.092;2023-06-26T03:38:13;8.90;;;4.60;;
68858;SDS011;55864;49.238;8.092;2023-06-26T03:40:15;9.32;;;4.40;;
68858;SDS011;55864;49.238;8.092;2023-06-26T03:42:16;8.48;;;4.57;;
68858;SDS011;55864;49.238;8.092;2023-06-26T03:44:16;8.25;;;4.53;;
68858;SDS011;55864;49.238;8.092;2023-06-26T03:46:21;7.40;;;3.95;;
68858;SDS011;55864;49.238;8.092;2023-06-26T03:48:22;8.63;;;4.55;;
68858;SDS011;55864;49.238;8.092;2023-06-26T03:50:23;8.35;;;4.57;;
68858;SDS011;55864;49.238;8.092;2023-06-26T03:52:26;8.48;;;4.82;;
68858;SDS011;55864;49.238;8.092;2023-06-26T03:54:26;8.30;;;4.60;;
68858;SDS011;55864;49.238;8.092;2023-06-26T03:56:27;8.13;;;4.60;;
68858;SDS011;55864;49.238;8.092;2023-06-26T03:58:27;13.02;;;4.60;;
68858;SDS011;55864;49.238;8.092;2023-06-26T04:00:28;8.32;;;4.80;;
68858;SDS011;55864;49.238;8.092;2023-06-26T04:02:28;8.27;;;4.43;;
68858;SDS011;55864;49.238;8.092;2023-06-26T04:04:29;9.02;;;4.70;;
68858;SDS011;55864;49.238;8.092;2023-06-26T04:06:29;9.07;;;4.75;;
68858;SDS011;55864;49.238;8.092;2023-06-26T04:08:31;8.10;;;4.88;;
68858;SDS011;55864;49.238;8.092;2023-06-26T04:10:32;9.93;;;4.70;;
68858;SDS011;55864;49.238;8.092;2023-06-26T04:12:32;9.45;;;4.82;;
68858;SDS011;55864;49.238;8.092;2023-06-26T04:14:33;7.65;;;5.00;;
68858;SDS011;55864;49.238;8.092;2023-06-26T04:16:33;8.50;;;4.63;;
68858;SDS011;55864;49.238;8.092;2023-06-26T04:18:34;8.15;;;4.65;;
68858;SDS011;55864;49.238;8.092;2023-06-26T04:20:37;9.02;;;4.55;;
68858;SDS011;55864;49.238;8.092;2023-06-26T04:22:39;9.52;;;4.93;;
68858;SDS011;55864;49.238;8.092;2023-06-26T04:24:40;8.93;;;4.25;;
68858;SDS011;55864;49.238;8.092;2023-06-26T04:26:41;8.18;;;4.68;;
68858;SDS011;55864;49.238;8.092;2023-06-26T04:28:42;9.05;;;4.90;;
68858;SDS011;55864;49.238;8.092;2023-06-26T04:30:43;9.10;;;4.57;;
68858;SDS011;55864;49.238;8.092;2023-06-26T04:32:43;9.10;;;5.00;;
68858;SDS011;55864;49.238;8.092;2023-06-26T04:34:44;8.10;;;4.35;;
68858;SDS011;55864;49.238;8.092;2023-06-26T04:36:44;9.05;;;4.88;;
68858;SDS011;55864;49.238;8.092;2023-06-26T04:38:45;8.98;;;4.55;;
68858;SDS011;55864;49.238;8.092;2023-06-26T04:40:47;11.48;;;5.13;;
68858;SDS011;55864;49.238;8.092;2023-06-26T04:42:47;11.50;;;5.63;;
68858;SDS011;55864;49.238;8.092;2023-06-26T04:44:48;9.32;;;5.82;;
68858;SDS011;55864;49.238;8.092;2023-06-26T04:46:48;10.10;;;5.57;;
68858;SDS011;55864;49.238;8.092;2023-06-26T04:48:49;10.43;;;5.10;;
68858;SDS011;55864;49.238;8.092;2023-06-26T04:50:49;8.18;;;4.78;;
68858;SDS011;55864;49.238;8.092;2023-06-26T04:52:50;10.13;;;4.85;;
68858;SDS011;55864;49.238;8.092;2023-06-26T04:54:50;9.02;;;5.25;;
68858;SDS011;55864;49.238;8.092;2023-06-26T04:56:52;8.82;;;4.57;;
68858;SDS011;55864;49.238;8.092;2023-06-26T04:58:53;9.90;;;5.00;;
68858;SDS011;55864;49.238;8.092;2023-06-26T05:00:53;9.13;;;4.93;;
68858;SDS011;55864;49.238;8.092;2023-06-26T05:02:54;9.95;;;5.07;;
68858;SDS011;55864;49.238;8.092;2023-06-26T05:04:54;9.20;;;4.90;;
68858;SDS011;55864;49.238;8.092;2023-06-26T05:06:55;9.88;;;5.25;;
68858;SDS011;55864;49.238;8.092;2023-06-26T05:08:55;10.32;;;5.18;;
68858;SDS011;55864;49.238;8.092;2023-06-26T05:10:56;10.13;;;4.55;;
68858;SDS011;55864;49.238;8.092;2023-06-26T05:12:58;10.45;;;5.28;;
68858;SDS011;55864;49.238;8.092;2023-06-26T05:14:58;9.88;;;5.18;;
68858;SDS011;55864;49.238;8.092;2023-06-26T05:16:59;11.05;;;5.70;;
68858;SDS011;55864;49.238;8.092;2023-06-26T05:18:59;10.02;;;5.22;;
68858;SDS011;55864;49.238;8.092;2023-06-26T05:21:00;10.10;;;5.38;;
68858;SDS011;55864;49.238;8.092;2023-06-26T05:23:04;9.68;;;5.40;;
68858;SDS011;55864;49.238;8.092;2023-06-26T05:25:05;8.88;;;4.75;;
68858;SDS011;55864;49.238;8.092;2023-06-26T05:27:09;11.05;;;5.20;;
68858;SDS011;55864;49.238;8.092;2023-06-26T05:29:12;8.50;;;4.70;;
68858;SDS011;55864;49.238;8.092;2023-06-26T05:31:13;9.93;;;5.15;;
68858;SDS011;55864;49.238;8.092;2023-06-26T05:33:14;11.15;;;5.57;;
68858;SDS011;55864;49.238;8.092;2023-06-26T05:35:18;8.50;;;4.80;;
68858;SDS011;55864;49.238;8.092;2023-06-26T05:37:21;9.98;;;5.20;;
68858;SDS011;55864;49.238;8.092;2023-06-26T05:39:22;9.00;;;5.40;;
68858;SDS011;55864;49.238;8.092;2023-06-26T05:41:23;11.48;;;5.22;;
68858;SDS011;55864;49.238;8.092;2023-06-26T05:43:24;12.95;;;5.43;;
68858;SDS011;55864;49.238;8.092;2023-06-26T05:45:26;8.80;;;4.88;;
68858;SDS011;55864;49.238;8.092;2023-06-26T05:47:27;11.30;;;5.22;;
68858;SDS011;55864;49.238;8.092;2023-06-26T05:49:27;9.93;;;5.40;;
68858;SDS011;55864;49.238;8.092;2023-06-26T05:51:28;12.18;;;5.57;;
68858;SDS011;55864;49.238;8.092;2023-06-26T05:53:29;10.13;;;5.05;;
68858;SDS011;55864;49.238;8.092;2023-06-26T05:55:31;11.00;;;4.93;;
68858;SDS011;55864;49.238;8.092;2023-06-26T05:57:32;10.02;;;4.57;;
68858;SDS011;55864;49.238;8.092;2023-06-26T06:01:38;12.07;;;4.93;;
68858;SDS011;55864;49.238;8.092;2023-06-26T06:03:39;9.15;;;4.95;;
68858;SDS011;55864;49.238;8.092;2023-06-26T06:05:40;10.45;;;4.57;;
68858;SDS011;55864;49.238;8.092;2023-06-26T06:07:40;13.52;;;4.47;;
68858;SDS011;55864;49.238;8.092;2023-06-26T06:09:41;10.50;;;4.80;;
68858;SDS011;55864;49.238;8.092;2023-06-26T06:11:41;9.18;;;4.63;;
68858;SDS011;55864;49.238;8.092;2023-06-26T06:13:41;8.77;;;4.65;;
68858;SDS011;55864;49.238;8.092;2023-06-26T06:15:42;10.80;;;4.88;;
68858;SDS011;55864;49.238;8.092;2023-06-26T06:17:44;9.48;;;5.10;;
68858;SDS011;55864;49.238;8.092;2023-06-26T06:19:45;8.20;;;4.80;;
68858;SDS011;55864;49.238;8.092;2023-06-26T06:21:45;11.57;;;4.90;;
68858;SDS011;55864;49.238;8.092;2023-06-26T06:23:46;8.13;;;4.30;;
68858;SDS011;55864;49.238;8.092;2023-06-26T06:25:47;8.05;;;4.65;;
68858;SDS011;55864;49.238;8.092;2023-06-26T06:27:47;10.20;;;5.18;;
68858;SDS011;55864;49.238;8.092;2023-06-26T06:29:48;8.82;;;4.82;;
68858;SDS011;55864;49.238;8.092;2023-06-26T06:31:48;9.75;;;4.80;;
68858;SDS011;55864;49.238;8.092;2023-06-26T06:33:50;9.93;;;5.47;;
68858;SDS011;55864;49.238;8.092;2023-06-26T06:35:50;9.27;;;4.97;;
68858;SDS011;55864;49.238;8.092;2023-06-26T06:37:51;9.98;;;4.75;;
68858;SDS011;55864;49.238;8.092;2023-06-26T06:39:51;11.85;;;5.00;;
68858;SDS011;55864;49.238;8.092;2023-06-26T06:41:52;8.98;;;4.97;;
68858;SDS011;55864;49.238;8.092;2023-06-26T06:43:53;12.20;;;5.13;;
68858;SDS011;55864;49.238;8.092;2023-06-26T08:37:35;13.05;;;7.30;;
68858;SDS011;55864;49.238;8.092;2023-06-26T08:40:07;10.32;;;5.13;;
68858;SDS011;55864;49.238;8.092;2023-06-26T08:42:09;11.32;;;4.90;;
68858;SDS011;55864;49.238;8.092;2023-06-26T08:44:09;8.70;;;5.10;;
68858;SDS011;55864;49.238;8.092;2023-06-26T08:46:10;9.88;;;4.70;;
68858;SDS011;55864;49.238;8.092;2023-06-26T08:48:11;10.75;;;4.90;;
68858;SDS011;55864;49.238;8.092;2023-06-26T08:50:12;10.00;;;4.85;;
68858;SDS011;55864;49.238;8.092;2023-06-26T08:52:17;8.55;;;4.95;;
68858;SDS011;55864;49.238;8.092;2023-06-26T08:54:21;8.80;;;4.70;;
68858;SDS011;55864;49.238;8.092;2023-06-26T08:56:28;9.15;;;4.90;;
68858;SDS011;55864;49.238;8.092;2023-06-26T08:58:32;11.27;;;4.90;;
68858;SDS011;55864;49.238;8.092;2023-06-26T09:00:32;11.55;;;5.20;;
68858;SDS011;55864;49.238;8.092;2023-06-26T09:02:34;8.93;;;5.15;;
68858;SDS011;55864;49.238;8.092;2023-06-26T09:04:35;10.02;;;5.32;;
68858;SDS011;55864;49.238;8.092;2023-06-26T09:06:36;12.18;;;6.25;;
68858;SDS011;55864;49.238;8.092;2023-06-26T09:08:36;11.45;;;5.30;;
68858;SDS011;55864;49.238;8.092;2023-06-26T09:10:38;9.95;;;5.25;;
68858;SDS011;55864;49.238;8.092;2023-06-26T09:12:39;10.20;;;5.37;;
68858;SDS011;55864;49.238;8.092;2023-06-26T09:14:39;11.88;;;5.40;;
68858;SDS011;55864;49.238;8.092;2023-06-26T09:16:41;12.50;;;5.18;;
68858;SDS011;55864;49.238;8.092;2023-06-26T09:18:42;10.35;;;5.50;;
68858;SDS011;55864;49.238;8.092;2023-06-26T09:20:42;12.10;;;5.65;;
68858;SDS011;55864;49.238;8.092;2023-06-26T09:22:43;8.70;;;5.20;;
68858;SDS011;55864;49.238;8.092;2023-06-26T09:24:47;8.40;;;5.13;;
68858;SDS011;55864;49.238;8.092;2023-06-26T09:26:50;10.55;;;5.13;;
68858;SDS011;55864;49.238;8.092;2023-06-26T09:28:52;9.57;;;5.47;;
68858;SDS011;55864;49.238;8.092;2023-06-26T09:30:52;9.75;;;5.20;;
68858;SDS011;55864;49.238;8.092;2023-06-26T09:32:53;11.90;;;5.50;;
68858;SDS011;55864;49.238;8.092;2023-06-26T09:34:53;11.52;;;5.55;;
68858;SDS011;55864;49.238;8.092;2023-06-26T09:36:54;10.07;;;5.15;;
68858;SDS011;55864;49.238;8.092;2023-06-26T09:38:55;8.10;;;5.05;;
68858;SDS011;55864;49.238;8.092;2023-06-26T09:40:56;9.13;;;5.40;;
68858;SDS011;55864;49.238;8.092;2023-06-26T09:43:03;9.32;;;5.47;;
68858;SDS011;55864;49.238;8.092;2023-06-26T09:45:04;11.52;;;5.45;;
68858;SDS011;55864;49.238;8.092;2023-06-26T09:47:05;10.43;;;5.75;;
68858;SDS011;55864;49.238;8.092;2023-06-26T09:49:07;12.48;;;5.28;;
68858;SDS011;55864;49.238;8.092;2023-06-26T09:51:09;9.18;;;5.13;;
68858;SDS011;55864;49.238;8.092;2023-06-26T09:53:10;8.98;;;5.18;;
68858;SDS011;55864;49.238;8.092;2023-06-26T09:55:12;9.52;;;5.22;;
68858;SDS011;55864;49.238;8.092;2023-06-26T09:57:17;8.32;;;5.20;;
68858;SDS011;55864;49.238;8.092;2023-06-26T09:59:20;11.02;;;5.85;;
68858;SDS011;55864;49.238;8.092;2023-06-26T10:01:20;9.98;;;5.97;;
68858;SDS011;55864;49.238;8.092;2023-06-26T10:03:21;10.57;;;5.47;;
68858;SDS011;55864;49.238;8.092;2023-06-26T10:05:21;10.23;;;5.88;;
68858;SDS011;55864;49.238;8.092;2023-06-26T10:07:22;10.25;;;5.95;;
68858;SDS011;55864;49.238;8.092;2023-06-26T10:09:23;11.70;;;5.55;;
68858;SDS011;55864;49.238;8.092;2023-06-26T10:11:24;8.55;;;5.63;;
68858;SDS011;55864;49.238;8.092;2023-06-26T10:13:31;12.55;;;5.80;;
68858;SDS011;55864;49.238;8.092;2023-06-26T10:15:36;9.32;;;5.25;;
68858;SDS011;55864;49.238;8.092;2023-06-26T10:17:37;9.38;;;5.50;;
68858;SDS011;55864;49.238;8.092;2023-06-26T10:19:43;11.40;;;5.78;;
68858;SDS011;55864;49.238;8.092;2023-06-26T10:21:44;9.55;;;5.63;;
68858;SDS011;55864;49.238;8.092;2023-06-26T10:23:45;9.60;;;5.80;;
68858;SDS011;55864;49.238;8.092;2023-06-26T10:25:46;8.75;;;5.40;;
68858;SDS011;55864;49.238;8.092;2023-06-26T10:27:51;10.05;;;5.55;;
68858;SDS011;55864;49.238;8.092;2023-06-26T10:29:55;11.07;;;5.40;;
68858;SDS011;55864;49.238;8.092;2023-06-26T10:34:01;8.50;;;5.05;;
68858;SDS011;55864;49.238;8.092;2023-06-26T10:36:14;12.27;;;5.18;;
68858;SDS011;55864;49.238;8.092;2023-06-26T10:38:15;8.40;;;5.13;;
68858;SDS011;55864;49.238;8.092;2023-06-26T10:40:20;10.52;;;5.40;;
68858;SDS011;55864;49.238;8.092;2023-06-26T10:42:28;9.77;;;5.63;;
68858;SDS011;55864;49.238;8.092;2023-06-26T10:44:40;9.30;;;5.65;;
68858;SDS011;55864;49.238;8.092;2023-06-26T10:46:50;14.07;;;5.18;;
68858;SDS011;55864;49.238;8.092;2023-06-26T10:48:59;9.68;;;5.53;;
68858;SDS011;55864;49.238;8.092;2023-06-26T10:51:07;9.85;;;5.47;;
68858;SDS011;55864;49.238;8.092;2023-06-26T10:53:14;10.30;;;5.25;;
68858;SDS011;55864;49.238;8.092;2023-06-26T10:57:22;8.10;;;4.70;;
68858;SDS011;55864;49.238;8.092;2023-06-26T10:59:24;9.02;;;4.90;;
68858;SDS011;55864;49.238;8.092;2023-06-26T11:01:25;10.88;;;5.63;;
68858;SDS011;55864;49.238;8.092;2023-06-26T11:03:29;9.63;;;5.20;;
68858;SDS011;55864;49.238;8.092;2023-06-26T11:05:32;9.38;;;4.63;;
68858;SDS011;55864;49.238;8.092;2023-06-26T11:07:33;9.10;;;4.65;;
68858;SDS011;55864;49.238;8.092;2023-06-26T11:09:33;10.35;;;4.60;;
68858;SDS011;55864;49.238;8.092;2023-06-26T11:11:57;11.20;;;4.70;;
68858;SDS011;55864;49.238;8.092;2023-06-26T11:13:59;11.25;;;4.50;;
68858;SDS011;55864;49.238;8.092;2023-06-26T11:16:00;10.90;;;4.30;;
68858;SDS011;55864;49.238;8.092;2023-06-26T11:18:01;9.32;;;4.53;;
68858;SDS011;55864;49.238;8.092;2023-06-26T11:20:02;7.97;;;4.35;;
68858;SDS011;55864;49.238;8.092;2023-06-26T11:22:05;7.72;;;4.10;;
68858;SDS011;55864;49.238;8.092;2023-06-26T11:24:06;8.75;;;4.22;;
68858;SDS011;55864;49.238;8.092;2023-06-26T11:26:17;9.15;;;3.83;;
68858;SDS011;55864;49.238;8.092;2023-06-26T11:28:18;8.05;;;3.90;;
68858;SDS011;55864;49.238;8.092;2023-06-26T11:30:24;7.20;;;3.97;;
68858;SDS011;55864;49.238;8.092;2023-06-26T11:32:26;9.35;;;4.20;;
68858;SDS011;55864;49.238;8.092;2023-06-26T11:34:29;10.48;;;3.97;;
68858;SDS011;55864;49.238;8.092;2023-06-26T11:36:30;8.70;;;3.90;;
68858;SDS011;55864;49.238;8.092;2023-06-26T11:38:37;9.50;;;4.00;;
68858;SDS011;55864;49.238;8.092;2023-06-26T11:40:38;8.05;;;4.03;;
68858;SDS011;55864;49.238;8.092;2023-06-26T11:42:39;7.93;;;3.90;;
68858;SDS011;55864;49.238;8.092;2023-06-26T11:44:40;8.15;;;4.25;;
68858;SDS011;55864;49.238;8.092;2023-06-26T11:46:41;9.13;;;4.40;;
68858;SDS011;55864;49.238;8.092;2023-06-26T11:48:42;8.43;;;4.32;;
68858;SDS011;55864;49.238;8.092;2023-06-26T11:50:42;8.52;;;4.22;;
68858;SDS011;55864;49.238;8.092;2023-06-26T11:52:43;7.65;;;3.95;;
68858;SDS011;55864;49.238;8.092;2023-06-26T11:54:45;9.35;;;4.13;;
68858;SDS011;55864;49.238;8.092;2023-06-26T11:56:51;9.93;;;4.20;;
68858;SDS011;55864;49.238;8.092;2023-06-26T11:58:56;20.00;;;4.85;;
68858;SDS011;55864;49.238;8.092;2023-06-26T12:00:57;13.27;;;4.80;;
68858;SDS011;55864;49.238;8.092;2023-06-26T12:02:57;10.05;;;4.65;;
68858;SDS011;55864;49.238;8.092;2023-06-26T12:04:58;12.55;;;4.55;;
68858;SDS011;55864;49.238;8.092;2023-06-26T12:06:58;11.65;;;4.38;;
68858;SDS011;55864;49.238;8.092;2023-06-26T12:09:00;9.45;;;4.65;;
68858;SDS011;55864;49.238;8.092;2023-06-26T12:11:03;9.45;;;4.20;;
68858;SDS011;55864;49.238;8.092;2023-06-26T12:13:04;9.68;;;4.90;;
68858;SDS011;55864;49.238;8.092;2023-06-26T12:15:05;8.90;;;4.45;;
68858;SDS011;55864;49.238;8.092;2023-06-26T12:19:09;8.30;;;4.20;;
68858;SDS011;55864;49.238;8.092;2023-06-26T12:23:32;10.10;;;4.50;;
68858;SDS011;55864;49.238;8.092;2023-06-26T12:25:33;9.40;;;5.38;;
68858;SDS011;55864;49.238;8.092;2023-06-26T12:27:35;8.95;;;5.45;;
68858;SDS011;55864;49.238;8.092;2023-06-26T12:29:35;7.95;;;4.70;;
68858;SDS011;55864;49.238;8.092;2023-06-26T12:31:39;8.32;;;4.57;;
68858;SDS011;55864;49.238;8.092;2023-06-26T12:33:40;9.18;;;4.82;;
68858;SDS011;55864;49.238;8.092;2023-06-26T12:35:42;9.25;;;5.30;;
68858;SDS011;55864;49.238;8.092;2023-06-26T12:37:43;9.13;;;4.95;;
68858;SDS011;55864;49.238;8.092;2023-06-26T12:39:47;9.23;;;5.15;;
68858;SDS011;55864;49.238;8.092;2023-06-26T12:41:49;10.40;;;5.93;;
68858;SDS011;55864;49.238;8.092;2023-06-26T12:43:56;11.85;;;5.57;;
68858;SDS011;55864;49.238;8.092;2023-06-26T12:45:57;17.63;;;6.40;;
68858;SDS011;55864;49.238;8.092;2023-06-26T12:48:06;12.77;;;5.88;;
68858;SDS011;55864;49.238;8.092;2023-06-26T12:50:07;13.52;;;5.80;;
68858;SDS011;55864;49.238;8.092;2023-06-26T12:52:09;9.45;;;5.30;;
68858;SDS011;55864;49.238;8.092;2023-06-26T12:56:11;10.50;;;5.78;;
68858;SDS011;55864;49.238;8.092;2023-06-26T12:58:12;12.40;;;5.35;;
68858;SDS011;55864;49.238;8.092;2023-06-26T13:00:14;10.73;;;5.20;;
68858;SDS011;55864;49.238;8.092;2023-06-26T13:02:15;10.57;;;5.30;;
68858;SDS011;55864;49.238;8.092;2023-06-26T13:04:16;12.25;;;6.13;;
68858;SDS011;55864;49.238;8.092;2023-06-26T13:06:16;14.27;;;6.50;;
68858;SDS011;55864;49.238;8.092;2023-06-26T13:08:17;13.38;;;6.50;;
68858;SDS011;55864;49.238;8.092;2023-06-26T13:10:18;11.05;;;5.57;;
68858;SDS011;55864;49.238;8.092;2023-06-26T13:12:18;16.23;;;5.95;;
68858;SDS011;55864;49.238;8.092;2023-06-26T13:14:19;9.23;;;4.50;;
68858;SDS011;55864;49.238;8.092;2023-06-26T13:16:21;10.10;;;5.00;;
68858;SDS011;55864;49.238;8.092;2023-06-26T13:18:21;10.55;;;5.05;;
68858;SDS011;55864;49.238;8.092;2023-06-26T13:20:22;10.38;;;5.10;;
68858;SDS011;55864;49.238;8.092;2023-06-26T13:22:22;13.75;;;4.45;;
68858;SDS011;55864;49.238;8.092;2023-06-26T13:24:23;8.65;;;3.95;;
68858;SDS011;55864;49.238;8.092;2023-06-26T13:26:23;10.27;;;3.80;;
68858;SDS011;55864;49.238;8.092;2023-06-26T13:28:24;7.35;;;3.47;;
68858;SDS011;55864;49.238;8.092;2023-06-26T13:30:24;10.00;;;3.53;;
68858;SDS011;55864;49.238;8.092;2023-06-26T13:32:26;6.93;;;3.05;;
68858;SDS011;55864;49.238;8.092;2023-06-26T13:34:27;7.87;;;3.00;;
68858;SDS011;55864;49.238;8.092;2023-06-26T13:36:28;7.13;;;2.90;;
68858;SDS011;55864;49.238;8.092;2023-06-26T13:38:28;7.72;;;2.53;;
68858;SDS011;55864;49.238;8.092;2023-06-26T13:40:29;6.55;;;2.50;;
68858;SDS011;55864;49.238;8.092;2023-06-26T13:42:29;7.90;;;2.50;;
68858;SDS011;55864;49.238;8.092;2023-06-26T13:44:30;7.90;;;2.40;;
68858;SDS011;55864;49.238;8.092;2023-06-26T13:46:30;7.47;;;2.40;;
68858;SDS011;55864;49.238;8.092;2023-06-26T13:48:32;7.07;;;2.40;;
68858;SDS011;55864;49.238;8.092;2023-06-26T13:50:33;5.97;;;2.10;;
68858;SDS011;55864;49.238;8.092;2023-06-26T13:52:33;7.22;;;2.03;;
68858;SDS011;55864;49.238;8.092;2023-06-26T13:54:34;6.80;;;2.15;;
68858;SDS011;55864;49.238;8.092;2023-06-26T13:56:34;5.35;;;2.20;;
68858;SDS011;55864;49.238;8.092;2023-06-26T13:58:35;7.68;;;2.30;;
68858;SDS011;55864;49.238;8.092;2023-06-26T14:00:36;7.25;;;1.98;;
68858;SDS011;55864;49.238;8.092;2023-06-26T14:02:37;6.90;;;2.20;;
68858;SDS011;55864;49.238;8.092;2023-06-26T14:04:39;8.02;;;2.20;;
68858;SDS011;55864;49.238;8.092;2023-06-26T14:06:39;9.90;;;2.37;;
68858;SDS011;55864;49.238;8.092;2023-06-26T14:08:40;6.10;;;2.10;;
68858;SDS011;55864;49.238;8.092;2023-06-26T14:10:40;7.53;;;2.15;;
68858;SDS011;55864;49.238;8.092;2023-06-26T14:12:41;5.95;;;2.25;;
68858;SDS011;55864;49.238;8.092;2023-06-26T14:14:41;6.97;;;1.92;;
68858;SDS011;55864;49.238;8.092;2023-06-26T14:16:42;5.45;;;2.00;;